Time;durP1;ratioP1;P1;durP2;ratioP2;P2;SDS_P1;SDS_P2;PMS_P1;PMS_P2;Temp;Humidity;BMP_temperature;BMP_pressure;BME280_temperature;BME280_humidity;BME280_pressure;Samples;Min_cycle;Max_cycle;Signal;HPM_P1;HPM_P2
2023/03/31 00:00:28;;;;;;;78.87;71.80;;;10.30;94.70;;;;;;4995889;28;20178;-91
2023/03/31 00:02:57;;;;;;;81.53;73.90;;;10.30;94.60;;;;;;4994994;28;20178;-91
2023/03/31 00:05:23;;;;;;;81.90;73.23;;;10.30;94.50;;;;;;4994940;28;20205;-91
2023/03/31 00:08:02;;;;;;;79.80;72.00;;;10.30;94.50;;;;;;4996013;28;20189;-91
2023/03/31 00:10:32;;;;;;;80.30;72.80;;;10.30;94.40;;;;;;4995941;28;20206;-91
2023/03/31 00:12:59;;;;;;;78.60;71.00;;;10.30;94.40;;;;;;4994767;28;20238;-91
2023/03/31 00:15:26;;;;;;;77.17;69.53;;;10.30;94.20;;;;;;4994391;28;20245;-90
2023/03/31 00:17:51;;;;;;;71.40;64.03;;;10.40;94.00;;;;;;4994377;28;20186;-91
2023/03/31 00:20:17;;;;;;;70.33;63.37;;;10.50;93.70;;;;;;4994955;28;20174;-91
2023/03/31 00:22:46;;;;;;;68.13;61.47;;;10.50;93.30;;;;;;4995277;28;20551;-91
2023/03/31 00:25:15;;;;;;;65.03;58.27;;;10.50;93.10;;;;;;4994786;28;20197;-91
2023/03/31 00:27:43;;;;;;;67.03;60.33;;;10.50;93.00;;;;;;4994505;28;20216;-91
2023/03/31 00:30:09;;;;;;;77.47;69.63;;;10.50;93.00;;;;;;4994719;28;20260;-91
2023/03/31 00:32:35;;;;;;;73.87;67.03;;;10.50;93.10;;;;;;4994552;28;20177;-91
2023/03/31 00:35:01;;;;;;;76.93;70.73;;;10.40;93.20;;;;;;4994454;28;20210;-91
2023/03/31 00:37:29;;;;;;;82.40;74.80;;;10.40;93.20;;;;;;4995264;28;20202;-91
2023/03/31 00:39:55;;;;;;;85.83;77.87;;;10.40;93.30;;;;;;4994277;28;20216;-91
2023/03/31 00:42:21;;;;;;;86.30;79.27;;;10.30;93.40;;;;;;4994736;28;20636;-91
2023/03/31 00:45:26;;;;;;;85.83;78.03;;;10.30;93.40;;;;;;4994103;28;20210;-91
2023/03/31 00:48:04;;;;;;;73.80;67.00;;;10.30;93.50;;;;;;4993756;28;20186;-91
2023/03/31 00:50:35;;;;;;;74.27;67.60;;;10.40;93.30;;;;;;4994379;28;20213;-90
2023/03/31 00:53:29;;;;;;;72.50;65.97;;;10.30;93.30;;;;;;4994637;28;20201;-92
2023/03/31 00:55:59;;;;;;;77.37;70.73;;;10.30;93.40;;;;;;4991601;28;20193;-91
2023/03/31 00:58:27;;;;;;;79.80;72.53;;;10.30;93.60;;;;;;4994061;28;20204;-91
2023/03/31 01:00:56;;;;;;;81.77;74.67;;;10.30;93.70;;;;;;4993804;28;20177;-91
2023/03/31 01:03:22;;;;;;;83.77;76.00;;;10.30;93.70;;;;;;4994634;28;20181;-92
2023/03/31 01:06:02;;;;;;;85.23;77.47;;;10.20;93.70;;;;;;4993923;28;20178;-92
2023/03/31 01:08:28;;;;;;;86.77;78.87;;;10.30;93.80;;;;;;4994636;28;20176;-92
2023/03/31 01:11:00;;;;;;;82.47;74.97;;;10.20;93.90;;;;;;4994321;28;20202;-91
2023/03/31 01:13:28;;;;;;;81.50;73.30;;;10.20;93.90;;;;;;4994355;28;20174;-91
2023/03/31 01:15:54;;;;;;;77.67;70.77;;;10.30;93.70;;;;;;4993765;28;20264;-91
2023/03/31 01:18:20;;;;;;;71.63;65.40;;;10.30;93.50;;;;;;4994066;28;20593;-91
2023/03/31 01:21:14;;;;;;;70.70;63.57;;;10.30;93.30;;;;;;4993852;28;20186;-91
2023/03/31 01:24:01;;;;;;;70.63;64.53;;;10.30;93.10;;;;;;4994116;28;20220;-91
2023/03/31 01:27:07;;;;;;;71.63;64.93;;;10.30;93.00;;;;;;4993492;28;20182;-91
2023/03/31 01:29:39;;;;;;;66.00;59.60;;;10.30;93.00;;;;;;4993359;28;20246;-91
2023/03/31 01:32:42;;;;;;;63.63;57.07;;;10.30;92.80;;;;;;4994274;28;20178;-92
2023/03/31 01:35:13;;;;;;;60.30;53.57;;;10.30;92.50;;;;;;4993051;28;20217;-91
2023/03/31 01:37:57;;;;;;;61.13;54.67;;;10.40;92.40;;;;;;4993388;28;20723;-91
2023/03/31 01:40:35;;;;;;;63.10;56.53;;;10.30;92.30;;;;;;4993119;28;20227;-92
2023/03/31 01:43:29;;;;;;;61.30;55.40;;;10.30;92.30;;;;;;4993523;28;20177;-92
2023/03/31 01:46:27;;;;;;;64.80;57.03;;;10.30;92.20;;;;;;4993386;28;20166;-91
2023/03/31 01:49:07;;;;;;;65.83;59.40;;;10.30;92.20;;;;;;4994115;28;20176;-91
2023/03/31 01:51:55;;;;;;;63.03;57.13;;;10.30;92.20;;;;;;4993835;28;20197;-91
2023/03/31 01:54:49;;;;;;;62.50;56.47;;;10.30;92.20;;;;;;4993910;28;20204;-91
2023/03/31 01:57:33;;;;;;;62.37;56.00;;;10.30;92.20;;;;;;4993130;28;20166;-91
2023/03/31 02:00:14;;;;;;;60.97;55.10;;;10.30;92.10;;;;;;4993657;28;20174;-91
2023/03/31 02:02:54;;;;;;;61.70;55.23;;;10.30;92.10;;;;;;4993618;28;20186;-91
2023/03/31 02:05:26;;;;;;;62.37;56.37;;;10.30;92.00;;;;;;4993409;28;20233;-91
2023/03/31 02:07:56;;;;;;;60.50;54.90;;;10.30;92.00;;;;;;4992978;28;20174;-91
2023/03/31 02:10:26;;;;;;;60.47;55.07;;;10.30;92.00;;;;;;4992925;28;20224;-91
2023/03/31 02:12:53;;;;;;;62.30;56.60;;;10.30;92.00;;;;;;4992872;28;20178;-91
2023/03/31 02:15:28;;;;;;;63.13;56.47;;;10.30;92.00;;;;;;4993209;28;20194;-91
2023/03/31 02:17:58;;;;;;;58.23;51.97;;;10.30;91.90;;;;;;4992687;28;20166;-91
2023/03/31 02:20:26;;;;;;;59.73;53.30;;;10.30;91.90;;;;;;4992947;28;20209;-91
2023/03/31 02:22:55;;;;;;;58.17;52.33;;;10.30;91.90;;;;;;4992704;28;20178;-91
2023/03/31 02:25:31;;;;;;;57.63;51.83;;;10.30;91.80;;;;;;4992854;28;20754;-91
2023/03/31 02:28:07;;;;;;;59.67;54.10;;;10.30;91.70;;;;;;4992800;28;20182;-91
2023/03/31 02:30:52;;;;;;;58.87;52.60;;;10.30;91.80;;;;;;4992678;28;20201;-91
2023/03/31 02:33:18;;;;;;;59.07;53.13;;;10.30;91.90;;;;;;4994060;28;20601;-91
2023/03/31 02:35:43;;;;;;;55.47;50.17;;;10.30;91.90;;;;;;4992983;28;20618;-91
2023/03/31 02:38:10;;;;;;;55.53;50.60;;;10.30;91.80;;;;;;4992956;28;20178;-91
2023/03/31 02:40:36;;;;;;;57.73;51.47;;;10.30;91.80;;;;;;4992659;28;20636;-92
2023/03/31 02:43:02;;;;;;;58.57;52.73;;;10.30;91.80;;;;;;4996316;28;20185;-91
2023/03/31 02:45:48;;;;;;;57.73;52.47;;;10.30;91.70;;;;;;4996374;28;20198;-91
2023/03/31 02:48:31;;;;;;;59.57;54.37;;;10.30;91.70;;;;;;4996433;28;20548;-91
2023/03/31 02:51:15;;;;;;;58.97;53.37;;;10.30;91.70;;;;;;4996573;28;20198;-91
2023/03/31 02:53:52;;;;;;;58.17;52.30;;;10.30;91.70;;;;;;4996691;28;20248;-91
2023/03/31 02:56:55;;;;;;;55.67;49.93;;;10.30;91.60;;;;;;4996335;28;20549;-91
2023/03/31 02:59:32;;;;;;;53.83;48.33;;;10.30;91.50;;;;;;4997514;28;20209;-90
2023/03/31 03:02:17;;;;;;;52.27;47.10;;;10.30;91.30;;;;;;4996617;28;20169;-91
2023/03/31 03:04:49;;;;;;;53.20;48.63;;;10.30;91.30;;;;;;4996399;28;20256;-91
2023/03/31 03:07:23;;;;;;;56.87;46.90;;;10.30;91.20;;;;;;4995983;28;20204;-91
2023/03/31 03:10:06;;;;;;;56.77;50.97;;;10.30;91.20;;;;;;4995792;28;20174;-91
2023/03/31 03:12:57;;;;;;;58.33;52.53;;;10.30;91.40;;;;;;4995807;28;20736;-91
2023/03/31 03:15:55;;;;;;;57.83;51.73;;;10.30;91.40;;;;;;4996350;28;20642;-91
2023/03/31 03:18:20;;;;;;;58.13;50.40;;;10.30;91.60;;;;;;4997224;28;20170;-92
2023/03/31 03:20:48;;;;;;;60.10;54.13;;;10.30;91.60;;;;;;4996118;28;20656;-91
2023/03/31 03:23:15;;;;;;;56.70;51.73;;;10.30;91.60;;;;;;4995766;28;20207;-91
2023/03/31 03:25:41;;;;;;;59.47;53.13;;;10.30;91.60;;;;;;4995999;28;20714;-91
2023/03/31 03:28:06;;;;;;;58.80;53.10;;;10.30;91.60;;;;;;4995887;28;20246;-91
2023/03/31 03:30:32;;;;;;;61.73;55.40;;;10.20;91.60;;;;;;4995656;28;20734;-91
2023/03/31 03:32:58;;;;;;;58.63;52.67;;;10.20;91.80;;;;;;4996134;28;20170;-92
2023/03/31 03:35:24;;;;;;;59.93;53.43;;;10.20;91.70;;;;;;4995816;28;20724;-91
2023/03/31 03:37:49;;;;;;;57.27;51.63;;;10.30;91.70;;;;;;4995590;28;20174;-91
2023/03/31 03:40:15;;;;;;;57.90;52.33;;;10.30;91.70;;;;;;4995466;28;20240;-91
2023/03/31 03:42:41;;;;;;;59.27;53.53;;;10.30;91.60;;;;;;4995365;28;20189;-91
2023/03/31 03:45:07;;;;;;;61.37;54.77;;;10.30;91.50;;;;;;4996024;28;20248;-91
2023/03/31 03:47:33;;;;;;;62.13;56.43;;;10.30;91.40;;;;;;4995627;28;20182;-91
2023/03/31 03:49:59;;;;;;;64.83;59.30;;;10.20;91.70;;;;;;4995935;28;20320;-91
2023/03/31 03:52:25;;;;;;;69.77;62.20;;;10.20;92.00;;;;;;4995923;28;20177;-91
2023/03/31 03:54:50;;;;;;;64.57;58.73;;;10.10;92.20;;;;;;4994186;28;20194;-91
2023/03/31 03:57:16;;;;;;;70.67;64.20;;;10.10;92.30;;;;;;4996117;28;20536;-91
2023/03/31 03:59:41;;;;;;;70.57;64.30;;;10.10;92.40;;;;;;4995373;28;20254;-91
2023/03/31 04:02:07;;;;;;;70.23;63.03;;;10.10;92.40;;;;;;4995527;28;20597;-91
2023/03/31 04:04:32;;;;;;;69.67;63.33;;;10.10;92.40;;;;;;4995372;28;20202;-92
2023/03/31 04:06:58;;;;;;;70.20;64.37;;;10.10;92.50;;;;;;4995450;28;20178;-91
2023/03/31 04:09:24;;;;;;;69.90;63.60;;;10.10;92.50;;;;;;4996063;28;20178;-91
2023/03/31 04:11:49;;;;;;;68.93;62.87;;;10.10;92.60;;;;;;4996058;28;20228;-91
2023/03/31 04:14:15;;;;;;;67.37;60.77;;;10.00;92.60;;;;;;4994692;28;20550;-91
2023/03/31 04:16:41;;;;;;;68.47;62.17;;;10.00;92.60;;;;;;4994968;28;20174;-91
2023/03/31 04:19:10;;;;;;;69.50;63.47;;;10.10;92.60;;;;;;4995025;28;20174;-91
2023/03/31 04:21:36;;;;;;;71.13;64.97;;;10.10;92.70;;;;;;4995709;28;20634;-91
2023/03/31 04:24:03;;;;;;;67.30;61.10;;;10.10;92.70;;;;;;4995087;28;20289;-91
2023/03/31 04:26:41;;;;;;;70.07;63.27;;;10.10;92.60;;;;;;4994556;28;20174;-91
2023/03/31 04:29:15;;;;;;;70.23;64.50;;;10.10;92.60;;;;;;4995349;28;20265;-91
2023/03/31 04:31:42;;;;;;;67.10;61.10;;;10.10;92.70;;;;;;4994620;28;20572;-91
2023/03/31 04:34:12;;;;;;;68.17;62.20;;;10.10;92.80;;;;;;5002579;22;20360;-91
2023/03/31 04:36:45;;;;;;;68.93;63.57;;;10.00;92.80;;;;;;4994218;28;20174;-91
2023/03/31 04:39:16;;;;;;;76.37;69.73;;;10.10;92.90;;;;;;4994261;28;20158;-91
2023/03/31 04:41:41;;;;;;;82.67;75.77;;;9.90;93.10;;;;;;4995052;28;20240;-90
2023/03/31 04:44:07;;;;;;;81.47;74.63;;;9.90;93.20;;;;;;4994303;28;20210;-91
2023/03/31 04:46:34;;;;;;;87.10;79.93;;;9.90;93.40;;;;;;4993916;28;20178;-91
2023/03/31 04:49:00;;;;;;;89.63;82.77;;;9.90;93.50;;;;;;4994591;28;20216;-91
2023/03/31 04:51:26;;;;;;;85.93;79.10;;;9.90;93.60;;;;;;4993909;28;20803;-90
2023/03/31 04:53:52;;;;;;;86.60;80.10;;;9.90;93.60;;;;;;4994523;28;20193;-91
2023/03/31 04:56:17;;;;;;;88.27;81.37;;;9.90;93.60;;;;;;4993993;28;20595;-91
2023/03/31 04:58:43;;;;;;;88.90;82.20;;;9.90;93.60;;;;;;4993970;28;20185;-91
2023/03/31 05:01:12;;;;;;;88.03;81.00;;;9.90;93.60;;;;;;4993955;28;20655;-91
2023/03/31 05:03:38;;;;;;;87.20;80.37;;;9.90;93.60;;;;;;4993548;28;20191;-91
2023/03/31 05:06:04;;;;;;;89.40;81.93;;;9.90;93.60;;;;;;4993912;28;20217;-91
2023/03/31 05:08:30;;;;;;;89.30;82.30;;;9.80;93.70;;;;;;4995400;28;20218;-92
2023/03/31 05:10:56;;;;;;;88.03;81.10;;;9.90;93.70;;;;;;4993695;28;20244;-91
2023/03/31 05:13:22;;;;;;;87.03;80.27;;;9.90;93.70;;;;;;4993820;28;20185;-91
2023/03/31 05:15:49;;;;;;;80.40;74.27;;;9.90;93.70;;;;;;4996732;28;20201;-91
2023/03/31 05:18:15;;;;;;;81.47;75.03;;;10.00;93.70;;;;;;4995462;28;20178;-91
2023/03/31 05:20:41;;;;;;;85.73;79.03;;;10.00;93.60;;;;;;4994886;28;20181;-91
2023/03/31 05:23:06;;;;;;;89.93;82.43;;;10.00;93.70;;;;;;4993548;28;20178;-91
2023/03/31 05:25:32;;;;;;;88.57;82.23;;;10.00;93.70;;;;;;4993046;28;20205;-91
2023/03/31 05:27:59;;;;;;;91.40;84.97;;;10.00;93.80;;;;;;4993076;28;20189;-91
2023/03/31 05:30:25;;;;;;;86.97;80.20;;;10.00;93.80;;;;;;4992959;28;20699;-90
2023/03/31 05:32:51;;;;;;;91.37;84.83;;;10.10;93.70;;;;;;4997643;28;20178;-93
2023/03/31 05:35:17;;;;;;;88.30;81.50;;;10.10;93.70;;;;;;4994426;28;20217;-91
2023/03/31 05:37:43;;;;;;;87.80;81.23;;;10.00;93.60;;;;;;4994498;28;20636;-92
2023/03/31 05:40:09;;;;;;;85.17;78.23;;;10.00;93.50;;;;;;4994220;28;20186;-91
2023/03/31 05:42:35;;;;;;;85.47;78.77;;;10.00;93.50;;;;;;4993376;28;20674;-89
2023/03/31 05:45:01;;;;;;;86.37;79.30;;;10.00;93.40;;;;;;4994002;28;20237;-89
2023/03/31 05:47:26;;;;;;;89.80;82.57;;;10.10;93.50;;;;;;4993906;28;20206;-91
2023/03/31 05:50:02;;;;;;;87.90;81.37;;;10.10;93.50;;;;;;4994191;28;20181;-90
2023/03/31 05:52:28;;;;;;;90.73;83.67;;;10.10;93.40;;;;;;4993229;28;20253;-90
2023/03/31 05:54:53;;;;;;;89.73;82.73;;;10.10;93.40;;;;;;4994815;28;20213;-89
2023/03/31 05:57:19;;;;;;;88.77;81.93;;;10.10;93.40;;;;;;4994479;28;20166;-91
2023/03/31 05:59:45;;;;;;;86.40;79.17;;;10.10;93.40;;;;;;4993090;28;20229;-90
2023/03/31 06:02:12;;;;;;;81.93;75.60;;;10.10;93.40;;;;;;4992886;28;20178;-90
2023/03/31 06:04:38;;;;;;;85.73;79.20;;;10.10;93.30;;;;;;4992556;28;20205;-90
2023/03/31 06:07:04;;;;;;;87.33;80.23;;;10.10;93.30;;;;;;4992926;28;20178;-90
2023/03/31 06:09:29;;;;;;;88.00;80.07;;;10.10;93.30;;;;;;4993652;28;20205;-90
2023/03/31 06:11:55;;;;;;;84.40;78.07;;;10.10;93.30;;;;;;4992710;28;20216;-90
2023/03/31 06:14:21;;;;;;;83.37;76.93;;;10.10;93.20;;;;;;4994289;28;20201;-91
2023/03/31 06:16:47;;;;;;;82.67;76.20;;;10.10;93.20;;;;;;4993881;28;20178;-90
2023/03/31 06:19:12;;;;;;;83.30;76.53;;;10.10;93.20;;;;;;4996455;28;20181;-90
2023/03/31 06:21:38;;;;;;;82.13;76.00;;;10.20;93.20;;;;;;4997297;28;20637;-91
2023/03/31 06:24:04;;;;;;;80.73;73.83;;;10.10;93.20;;;;;;4996760;28;20233;-91
2023/03/31 06:26:30;;;;;;;80.43;74.10;;;10.20;93.10;;;;;;4996518;28;20178;-90
2023/03/31 06:28:58;;;;;;;83.60;77.13;;;10.20;93.00;;;;;;4998857;28;20174;-91
2023/03/31 06:31:24;;;;;;;78.40;72.40;;;10.20;93.00;;;;;;4996635;28;20217;-89
2023/03/31 06:33:51;;;;;;;74.70;68.87;;;10.20;92.90;;;;;;4996324;28;20198;-90
2023/03/31 06:36:19;;;;;;;80.60;74.00;;;10.20;92.90;;;;;;4997420;28;20170;-90
2023/03/31 06:38:45;;;;;;;77.83;71.80;;;10.20;92.90;;;;;;4996873;28;20265;-90
2023/03/31 06:41:13;;;;;;;77.50;71.67;;;10.20;92.80;;;;;;4996126;28;20236;-90
2023/03/31 07:28:18;;;;;;;81.90;75.57;;;10.60;92.40;;;;;;5002028;28;20201;-91
2023/03/31 07:30:43;;;;;;;82.07;75.57;;;10.60;92.40;;;;;;4998898;28;20210;-91
2023/03/31 07:51:17;;;;;;;68.07;62.60;;;10.80;90.80;;;;;;4978200;28;20214;-92
2023/03/31 07:53:43;;;;;;;70.80;65.23;;;10.80;91.20;;;;;;4962119;28;20182;-91
2023/03/31 07:56:09;;;;;;;70.97;65.57;;;10.80;91.20;;;;;;4959465;28;20310;-91
2023/03/31 07:59:05;;;;;;;71.10;65.37;;;10.70;91.00;;;;;;4967346;28;20199;-94
2023/03/31 08:02:19;;;;;;;71.93;66.27;;;10.70;91.20;;;;;;4974832;28;20210;-94
2023/03/31 08:20:21;;;;;;;87.90;81.70;;;10.60;92.40;;;;;;1916823;22;20233;-93
2023/03/31 08:42:42;;;;;;;101.07;94.10;;;10.40;93.30;;;;;;5535506;22;20296;-93
2023/03/31 09:26:51;;;;;;;122.27;114.20;;;10.80;94.20;;;;;;5588097;22;20741;-90
2023/03/31 09:42:25;;;;;;;117.27;110.13;;;10.70;93.90;;;;;;4993551;28;20210;-90
2023/03/31 09:44:51;;;;;;;119.37;111.77;;;10.70;94.00;;;;;;4993948;28;20205;-90
2023/03/31 09:47:38;;;;;;;117.80;109.93;;;10.70;94.00;;;;;;4993656;28;20193;-91
2023/03/31 09:50:06;;;;;;;119.50;112.07;;;10.80;94.00;;;;;;4993750;28;20232;-91
2023/03/31 09:52:41;;;;;;;110.03;103.27;;;10.90;94.00;;;;;;4992997;28;20223;-91
2023/03/31 09:55:37;;;;;;;119.00;111.40;;;10.80;93.90;;;;;;4993306;28;20193;-91
2023/03/31 09:58:06;;;;;;;119.63;112.17;;;10.80;93.90;;;;;;4986062;28;20818;-91
2023/03/31 10:00:33;;;;;;;116.77;109.27;;;10.90;94.00;;;;;;4993146;28;20803;-91
2023/03/31 10:03:06;;;;;;;112.83;105.90;;;10.90;93.90;;;;;;4993900;28;20186;-91
2023/03/31 10:05:40;;;;;;;117.47;109.93;;;10.80;93.80;;;;;;4994210;28;20202;-91
2023/03/31 10:08:27;;;;;;;123.90;116.30;;;10.90;94.00;;;;;;4993638;28;20166;-91
2023/03/31 10:11:06;;;;;;;118.10;110.70;;;11.10;94.10;;;;;;4993487;28;20288;-91
2023/03/31 10:13:38;;;;;;;118.87;111.40;;;11.20;94.00;;;;;;4993591;28;20165;-90
2023/03/31 10:16:08;;;;;;;111.10;104.40;;;11.20;93.80;;;;;;4993312;28;20559;-90
2023/03/31 10:18:37;;;;;;;108.73;101.83;;;11.10;93.80;;;;;;4993853;28;20641;-90
2023/03/31 10:21:05;;;;;;;114.87;107.60;;;11.10;93.70;;;;;;4993486;28;20214;-91
2023/03/31 10:23:33;;;;;;;104.30;97.73;;;11.30;93.80;;;;;;4993670;28;20236;-91
2023/03/31 10:26:01;;;;;;;105.93;99.33;;;11.30;93.60;;;;;;4992960;28;20655;-90
2023/03/31 10:28:32;;;;;;;102.17;96.07;;;11.20;93.50;;;;;;4993054;28;20186;-90
2023/03/31 10:31:02;;;;;;;104.20;97.97;;;11.20;93.40;;;;;;4993314;28;20197;-90
2023/03/31 10:33:33;;;;;;;107.23;100.83;;;11.10;93.30;;;;;;4993250;28;20198;-90
2023/03/31 10:36:05;;;;;;;104.20;97.70;;;11.20;93.30;;;;;;4994145;28;20171;-90
2023/03/31 10:38:36;;;;;;;98.27;91.90;;;11.20;93.20;;;;;;4996747;28;20187;-91
2023/03/31 10:41:02;;;;;;;96.93;90.83;;;11.40;93.20;;;;;;4995503;28;20676;-91
2023/03/31 10:43:40;;;;;;;98.60;92.40;;;11.50;93.10;;;;;;4994848;28;20193;-91
2023/03/31 10:46:05;;;;;;;93.60;87.60;;;11.40;92.90;;;;;;4993529;28;20313;-90
2023/03/31 10:48:40;;;;;;;87.83;82.63;;;11.50;92.80;;;;;;4992958;28;20234;-90
2023/03/31 10:51:33;;;;;;;91.50;85.43;;;11.50;92.70;;;;;;4994653;28;20634;-90
2023/03/31 10:54:03;;;;;;;82.10;76.70;;;11.50;92.50;;;;;;4993965;28;20669;-90
2023/03/31 10:56:45;;;;;;;86.40;81.10;;;11.40;92.20;;;;;;4995020;28;20205;-91
2023/03/31 10:59:28;;;;;;;85.57;80.37;;;11.50;92.20;;;;;;4993443;28;20241;-91
2023/03/31 11:02:08;;;;;;;86.30;81.00;;;11.50;92.00;;;;;;4993577;28;20194;-91
2023/03/31 11:04:42;;;;;;;87.83;82.10;;;11.40;92.10;;;;;;4998169;28;20229;-91
2023/03/31 11:07:26;;;;;;;79.23;74.13;;;11.60;92.20;;;;;;4998173;28;20177;-91
2023/03/31 11:10:06;;;;;;;82.70;77.80;;;11.40;91.50;;;;;;4997624;28;20174;-92
2023/03/31 11:12:36;;;;;;;80.73;75.97;;;11.40;91.70;;;;;;4997086;28;20170;-91
2023/03/31 11:15:21;;;;;;;77.57;72.67;;;11.30;91.50;;;;;;4996827;28;20300;-91
2023/03/31 11:18:17;;;;;;;74.10;68.90;;;11.30;91.60;;;;;;4996979;28;20174;-91
2023/03/31 11:21:05;;;;;;;82.00;77.03;;;11.30;91.50;;;;;;4997148;28;20171;-92
2023/03/31 11:23:41;;;;;;;81.03;75.93;;;11.50;91.50;;;;;;4997092;28;20269;-91
2023/03/31 11:26:23;;;;;;;80.17;75.27;;;11.50;91.50;;;;;;4996122;28;20236;-91
2023/03/31 11:28:59;;;;;;;77.83;72.87;;;11.70;91.70;;;;;;4997054;28;20177;-92
2023/03/31 11:31:40;;;;;;;83.83;78.50;;;11.70;91.60;;;;;;4997341;28;20229;-91
2023/03/31 11:34:20;;;;;;;81.53;76.50;;;11.70;91.40;;;;;;4996409;28;20206;-92
2023/03/31 11:37:08;;;;;;;83.10;78.07;;;11.70;91.50;;;;;;4996949;28;20170;-92
2023/03/31 11:39:47;;;;;;;84.13;79.13;;;11.60;91.40;;;;;;4998193;28;20170;-91
2023/03/31 11:42:21;;;;;;;80.07;75.17;;;11.50;91.50;;;;;;4997441;28;20201;-91
2023/03/31 11:44:51;;;;;;;91.73;86.23;;;11.60;91.70;;;;;;4997276;28;20687;-91
2023/03/31 11:47:29;;;;;;;89.83;84.70;;;11.40;91.20;;;;;;4996499;28;20220;-92
2023/03/31 11:49:58;;;;;;;96.80;91.03;;;11.40;91.70;;;;;;4997097;28;20232;-91
2023/03/31 11:52:36;;;;;;;99.90;93.80;;;11.40;91.90;;;;;;4996485;28;20197;-91
2023/03/31 11:55:16;;;;;;;104.57;97.87;;;11.60;92.20;;;;;;4998526;28;20207;-91
2023/03/31 11:58:06;;;;;;;107.67;101.37;;;11.70;92.20;;;;;;5000230;28;20663;-92
2023/03/31 12:00:43;;;;;;;119.63;112.37;;;11.60;92.20;;;;;;4996922;28;20192;-91
2023/03/31 12:03:19;;;;;;;117.80;110.90;;;11.40;92.50;;;;;;4997447;28;20170;-90
2023/03/31 12:05:54;;;;;;;114.87;107.90;;;11.30;92.80;;;;;;4997542;28;20212;-90
2023/03/31 12:08:37;;;;;;;113.63;107.13;;;11.40;93.20;;;;;;4997636;28;20180;-90
2023/03/31 12:11:13;;;;;;;115.70;109.13;;;11.30;93.20;;;;;;4997342;28;20236;-90
2023/03/31 12:13:43;;;;;;;115.37;108.77;;;11.40;93.30;;;;;;4997018;28;20193;-91
2023/03/31 12:16:18;;;;;;;117.57;110.97;;;11.40;93.40;;;;;;4998728;28;20177;-91
2023/03/31 12:19:22;;;;;;;116.33;109.50;;;11.30;93.20;;;;;;4999229;28;20165;-90
2023/03/31 12:22:01;;;;;;;114.73;108.33;;;11.10;93.30;;;;;;4994374;28;20186;-91
2023/03/31 12:24:27;;;;;;;118.77;112.10;;;11.20;93.50;;;;;;4994721;28;20201;-92
2023/03/31 12:27:20;;;;;;;124.00;116.47;;;11.00;93.30;;;;;;4997316;28;20186;-93
2023/03/31 12:30:09;;;;;;;118.33;111.33;;;10.90;93.40;;;;;;4999770;28;20253;-92
2023/03/31 12:32:40;;;;;;;126.70;119.27;;;10.80;93.50;;;;;;4996065;28;20228;-92
2023/03/31 12:35:15;;;;;;;123.67;116.60;;;10.80;93.60;;;;;;4998060;28;20194;-92
2023/03/31 12:38:07;;;;;;;127.43;119.93;;;10.80;93.70;;;;;;4998414;28;20169;-93
2023/03/31 12:41:03;;;;;;;133.37;125.70;;;10.90;93.80;;;;;;4996735;28;20676;-91
2023/03/31 12:43:50;;;;;;;129.50;121.90;;;11.00;94.00;;;;;;4997398;28;20162;-92
2023/03/31 12:46:16;;;;;;;133.37;125.67;;;11.00;94.00;;;;;;4997641;28;20170;-93
2023/03/31 12:48:57;;;;;;;131.20;123.30;;;11.20;94.10;;;;;;4997361;28;20177;-93
2023/03/31 12:51:31;;;;;;;142.87;134.30;;;11.30;94.10;;;;;;4996874;28;20194;-92
2023/03/31 12:54:38;;;;;;;135.13;127.23;;;11.40;94.10;;;;;;4997071;28;20202;-92
2023/03/31 12:57:15;;;;;;;138.17;130.37;;;11.50;94.10;;;;;;4995316;28;20194;-92
2023/03/31 12:59:43;;;;;;;142.07;133.40;;;11.50;94.00;;;;;;4995580;28;20228;-92
2023/03/31 13:02:08;;;;;;;135.97;127.90;;;11.50;94.10;;;;;;4994937;28;20184;-92
2023/03/31 13:04:37;;;;;;;138.17;129.87;;;11.50;94.00;;;;;;4994298;28;20284;-91
2023/03/31 13:07:11;;;;;;;131.83;123.93;;;11.70;94.10;;;;;;4994334;28;20192;-91
2023/03/31 13:09:42;;;;;;;126.70;119.20;;;11.60;93.90;;;;;;4994434;28;20201;-92
2023/03/31 13:12:13;;;;;;;128.43;120.90;;;11.70;93.90;;;;;;4995772;28;20205;-91
2023/03/31 13:14:41;;;;;;;126.07;118.47;;;11.60;93.60;;;;;;4997730;28;20202;-93
2023/03/31 13:17:30;;;;;;;123.67;116.27;;;11.60;93.50;;;;;;5003460;28;20178;-93
2023/03/31 13:20:15;;;;;;;117.00;110.13;;;11.60;93.50;;;;;;5002926;28;20635;-92
2023/03/31 13:22:47;;;;;;;124.03;116.33;;;11.70;93.40;;;;;;5002458;28;20174;-93
2023/03/31 13:25:34;;;;;;;122.03;115.03;;;11.80;93.30;;;;;;5006196;28;20256;-93
2023/03/31 13:28:09;;;;;;;117.30;110.23;;;11.90;93.30;;;;;;5003328;28;20650;-92
2023/03/31 13:30:38;;;;;;;105.23;98.77;;;11.80;92.80;;;;;;4996266;28;20237;-92
2023/03/31 13:33:18;;;;;;;107.63;100.57;;;11.80;92.80;;;;;;4994366;28;20178;-92
2023/03/31 13:35:58;;;;;;;101.73;95.33;;;11.80;92.70;;;;;;4994579;28;20210;-92
2023/03/31 13:38:33;;;;;;;95.37;89.27;;;11.90;92.60;;;;;;4994653;28;20170;-92
2023/03/31 13:41:25;;;;;;;100.13;93.87;;;12.00;92.60;;;;;;4996597;28;20193;-92
2023/03/31 13:43:59;;;;;;;106.10;99.70;;;11.90;92.40;;;;;;4998202;28;20208;-92
2023/03/31 13:47:04;;;;;;;107.67;100.97;;;12.00;92.50;;;;;;4998835;28;20212;-92
2023/03/31 13:49:59;;;;;;;103.57;96.67;;;12.00;92.40;;;;;;5000377;28;20174;-93
2023/03/31 13:52:43;;;;;;;98.63;92.40;;;12.10;92.50;;;;;;4996588;28;20209;-92
2023/03/31 13:55:39;;;;;;;95.50;89.90;;;12.00;92.20;;;;;;4995395;28;20232;-92
2023/03/31 13:58:23;;;;;;;99.40;93.20;;;12.20;92.20;;;;;;4995289;28;20254;-92
2023/03/31 14:01:01;;;;;;;96.63;90.93;;;12.20;92.20;;;;;;4995302;28;20166;-91
2023/03/31 14:03:45;;;;;;;105.87;99.50;;;12.30;92.00;;;;;;4993310;28;20172;-91
2023/03/31 14:06:25;;;;;;;102.00;95.93;;;12.20;91.70;;;;;;4993554;28;20170;-91
2023/03/31 14:09:02;;;;;;;95.60;89.70;;;12.20;91.80;;;;;;4994055;28;20162;-91
2023/03/31 14:11:31;;;;;;;96.83;91.03;;;12.20;91.70;;;;;;4994027;28;20194;-92
2023/03/31 14:14:13;;;;;;;111.93;105.33;;;12.10;91.60;;;;;;4995384;28;20268;-92
2023/03/31 14:16:44;;;;;;;109.77;103.00;;;12.00;91.50;;;;;;4994754;28;20232;-91
2023/03/31 14:19:48;;;;;;;124.97;117.07;;;11.80;92.00;;;;;;4993512;28;20163;-92
2023/03/31 14:22:46;;;;;;;122.80;115.83;;;11.70;92.40;;;;;;4995353;28;20170;-92
2023/03/31 14:25:30;;;;;;;125.93;118.63;;;11.70;92.80;;;;;;4993702;28;20202;-91
2023/03/31 14:28:18;;;;;;;121.20;114.10;;;11.70;93.20;;;;;;4993377;28;20190;-91
2023/03/31 14:30:57;;;;;;;118.50;111.60;;;11.80;93.40;;;;;;4994322;28;20205;-91
2023/03/31 14:33:52;;;;;;;127.03;119.83;;;11.80;93.20;;;;;;4994627;28;20170;-91
2023/03/31 14:36:30;;;;;;;103.67;97.47;;;12.30;93.60;;;;;;4993318;28;20171;-91
2023/03/31 14:39:02;;;;;;;103.33;97.10;;;12.20;93.20;;;;;;4996095;28;20169;-91
2023/03/31 14:41:31;;;;;;;90.20;84.77;;;12.40;93.00;;;;;;4997521;28;20202;-91
2023/03/31 14:44:01;;;;;;;86.43;80.93;;;12.30;92.40;;;;;;4997249;28;20210;-91
2023/03/31 14:46:33;;;;;;;87.07;81.53;;;12.40;92.40;;;;;;4997461;28;20200;-91
2023/03/31 14:49:13;;;;;;;72.40;67.73;;;12.40;92.20;;;;;;4997654;28;20541;-91
2023/03/31 14:51:42;;;;;;;80.03;75.03;;;12.30;91.60;;;;;;4996885;28;20221;-91
2023/03/31 14:54:17;;;;;;;95.00;89.30;;;12.30;90.90;;;;;;4997030;28;20198;-91
2023/03/31 14:56:44;;;;;;;104.27;97.97;;;11.80;91.70;;;;;;4998131;28;20519;-91
2023/03/31 14:59:13;;;;;;;103.17;96.97;;;11.30;92.30;;;;;;4998635;28;20185;-91
2023/03/31 15:01:39;;;;;;;93.20;87.80;;;11.30;92.60;;;;;;4999878;28;20186;-91
2023/03/31 15:04:10;;;;;;;95.90;90.30;;;11.20;92.70;;;;;;4998613;28;20202;-91
2023/03/31 15:06:38;;;;;;;99.93;94.13;;;11.10;93.00;;;;;;4999020;28;20257;-91
2023/03/31 15:09:05;;;;;;;100.17;94.27;;;11.00;93.10;;;;;;4998450;28;20184;-91
2023/03/31 15:11:31;;;;;;;101.97;96.10;;;11.00;93.20;;;;;;5001012;28;20190;-92
2023/03/31 15:13:59;;;;;;;104.93;98.23;;;11.10;93.30;;;;;;4999627;28;20229;-91
2023/03/31 15:16:41;;;;;;;105.03;98.50;;;11.10;93.30;;;;;;4997116;28;20170;-91
2023/03/31 15:19:23;;;;;;;104.77;98.63;;;11.10;93.40;;;;;;4999011;28;20166;-92
2023/03/31 15:22:10;;;;;;;109.77;103.37;;;11.20;93.50;;;;;;5000612;28;20171;-92
2023/03/31 15:24:36;;;;;;;109.20;102.83;;;11.30;93.60;;;;;;4998369;28;20573;-92
2023/03/31 15:27:35;;;;;;;111.20;104.63;;;11.30;93.70;;;;;;4996054;28;20179;-92
2023/03/31 15:30:05;;;;;;;113.10;106.43;;;11.30;93.70;;;;;;4996339;28;20174;-92